createdAt,value
2023-08-29T00:01:55.652Z,9.31
2023-08-29T00:04:24.536Z,9.32
2023-08-29T00:06:52.056Z,9.30
2023-08-29T00:09:19.573Z,9.31
2023-08-29T00:11:47.051Z,9.32
2023-08-29T00:14:14.534Z,9.46
2023-08-29T00:16:42.120Z,9.60
2023-08-29T00:19:09.610Z,9.67
2023-08-29T00:21:38.473Z,9.72
2023-08-29T00:24:07.498Z,9.74
2023-08-29T00:26:35.002Z,9.74
2023-08-29T00:29:02.616Z,9.68
2023-08-29T00:31:30.156Z,9.55
2023-08-29T00:33:57.658Z,9.52
2023-08-29T00:36:25.184Z,9.52
2023-08-29T00:38:54.193Z,9.44
2023-08-29T00:41:21.719Z,9.46
2023-08-29T00:43:49.225Z,9.48
2023-08-29T00:46:17.040Z,9.47
2023-08-29T00:48:44.900Z,9.48
2023-08-29T00:51:12.665Z,9.54
2023-08-29T00:53:40.252Z,9.62
2023-08-29T00:56:09.148Z,9.71
2023-08-29T00:58:37.094Z,9.74
2023-08-29T01:01:04.764Z,9.80
2023-08-29T01:03:32.716Z,9.82
2023-08-29T01:06:00.201Z,9.80
2023-08-29T01:08:27.786Z,9.75
2023-08-29T01:11:02.950Z,9.69
2023-08-29T01:13:39.987Z,9.63
2023-08-29T01:16:11.044Z,9.67
2023-08-29T01:18:40.080Z,9.64
2023-08-29T01:21:19.984Z,9.70
2023-08-29T01:23:55.805Z,9.74
2023-08-29T01:26:25.577Z,9.80
2023-08-29T01:28:53.385Z,9.84
2023-08-29T01:31:22.284Z,9.85
2023-08-29T01:33:49.932Z,9.91
2023-08-29T01:36:17.395Z,10.03
2023-08-29T01:38:44.880Z,10.04
2023-08-29T01:41:12.367Z,10.03
2023-08-29T01:43:41.220Z,10.02
2023-08-29T01:46:08.725Z,10.05
2023-08-29T01:48:36.879Z,10.07
2023-08-29T01:51:04.407Z,10.23
2023-08-29T01:53:31.947Z,10.26
2023-08-29T01:56:01.373Z,10.28
2023-08-29T01:58:29.718Z,10.24
2023-08-29T02:01:09.866Z,10.18
2023-08-29T02:03:46.603Z,10.16
2023-08-29T02:06:14.792Z,10.20
2023-08-29T02:08:43.494Z,10.30
2023-08-29T02:11:10.989Z,10.41
2023-08-29T02:13:38.487Z,10.45
2023-08-29T02:16:07.362Z,10.58
2023-08-29T02:18:34.921Z,10.57
2023-08-29T02:21:02.458Z,10.60
2023-08-29T02:23:29.968Z,10.63
2023-08-29T02:26:04.873Z,10.67
2023-08-29T02:28:35.189Z,10.57
2023-08-29T02:31:07.598Z,10.59
2023-08-29T02:33:38.247Z,10.59
2023-08-29T02:36:06.555Z,10.56
2023-08-29T02:38:34.396Z,10.49
2023-08-29T02:41:02.080Z,10.47
2023-08-29T02:43:29.891Z,10.41
2023-08-29T02:45:57.429Z,10.42
2023-08-29T02:48:26.354Z,10.47
2023-08-29T02:50:53.856Z,10.50
2023-08-29T02:53:22.986Z,10.41
2023-08-29T02:55:52.032Z,10.35
2023-08-29T02:58:19.807Z,10.43
2023-08-29T03:00:48.465Z,10.39
2023-08-29T03:03:16.138Z,10.38
2023-08-29T03:05:54.632Z,10.39
2023-08-29T03:08:22.153Z,10.39
2023-08-29T03:10:49.814Z,10.33
2023-08-29T03:13:18.897Z,10.30
2023-08-29T03:15:46.468Z,10.31
2023-08-29T03:18:14.030Z,10.40
2023-08-29T03:20:41.885Z,10.49
2023-08-29T03:23:10.725Z,10.58
2023-08-29T03:25:38.472Z,10.57
2023-08-29T03:28:07.263Z,10.61
2023-08-29T03:30:35.116Z,10.61
2023-08-29T03:33:03.071Z,10.64
2023-08-29T03:35:30.974Z,10.64
2023-08-29T03:37:58.826Z,10.61
2023-08-29T03:40:27.693Z,10.62
2023-08-29T03:42:55.187Z,10.59
2023-08-29T03:45:22.947Z,10.57
2023-08-29T03:47:50.488Z,10.62
2023-08-29T03:50:21.547Z,10.42
2023-08-29T03:52:49.979Z,10.35
2023-08-29T03:55:17.616Z,10.26
2023-08-29T03:57:46.428Z,10.18
2023-08-29T04:00:15.766Z,10.24
2023-08-29T04:02:43.438Z,10.21
2023-08-29T04:05:16.701Z,10.23
2023-08-29T04:07:45.457Z,10.23
2023-08-29T04:10:14.575Z,10.34
2023-08-29T04:12:42.233Z,10.38
2023-08-29T04:15:13.551Z,10.36
2023-08-29T04:17:41.168Z,10.34
2023-08-29T04:20:10.666Z,10.31
2023-08-29T04:22:39.283Z,10.31
2023-08-29T04:25:07.888Z,10.36
2023-08-29T04:27:36.389Z,10.44
2023-08-29T04:30:04.977Z,10.47
2023-08-29T04:32:35.384Z,10.46
2023-08-29T04:35:03.845Z,10.48
2023-08-29T04:37:31.334Z,10.49
2023-08-29T04:39:58.846Z,10.43
2023-08-29T04:42:26.381Z,10.37
2023-08-29T04:44:54.766Z,10.36
2023-08-29T04:47:22.338Z,10.34
2023-08-29T04:49:51.188Z,10.31
2023-08-29T04:52:18.737Z,10.40
2023-08-29T04:54:46.267Z,10.45
2023-08-29T04:57:14.214Z,10.53
2023-08-29T04:59:41.735Z,10.59
2023-08-29T05:02:09.726Z,10.64
2023-08-29T05:04:37.686Z,10.67
2023-08-29T05:07:06.662Z,10.68
2023-08-29T05:09:34.160Z,10.62
2023-08-29T05:12:01.690Z,10.68
2023-08-29T05:14:29.195Z,10.74
2023-08-29T05:16:57.596Z,10.78
2023-08-29T05:19:25.115Z,10.80
2023-08-29T05:21:52.676Z,10.82
2023-08-29T05:24:21.539Z,10.67
2023-08-29T05:26:49.693Z,10.65
2023-08-29T05:29:17.207Z,10.57
2023-08-29T05:31:44.764Z,10.55
2023-08-29T05:34:12.330Z,10.48
2023-08-29T05:36:39.800Z,10.52
2023-08-29T05:39:07.432Z,10.50
2023-08-29T05:41:36.338Z,10.60
2023-08-29T05:44:04.167Z,10.62
2023-08-29T05:46:32.212Z,10.68
2023-08-29T05:49:00.676Z,10.84
2023-08-29T05:51:28.275Z,10.88
2023-08-29T05:53:55.940Z,10.92
2023-08-29T05:56:23.462Z,10.89
2023-08-29T05:58:52.310Z,10.96
2023-08-29T06:01:19.894Z,10.95
2023-08-29T06:03:48.621Z,11.04
2023-08-29T06:06:16.694Z,11.08
2023-08-29T06:08:45.598Z,11.17
2023-08-29T06:11:13.245Z,11.23
2023-08-29T06:13:40.740Z,11.28
2023-08-29T06:16:09.775Z,11.34
2023-08-29T06:18:37.286Z,11.40
2023-08-29T06:21:06.038Z,11.48
2023-08-29T06:23:33.575Z,11.52
2023-08-29T06:26:01.145Z,11.61
2023-08-29T06:28:29.524Z,11.66
2023-08-29T06:30:57.073Z,11.81
2023-08-29T06:33:26.017Z,11.87
2023-08-29T06:35:53.498Z,11.90
2023-08-29T06:38:20.961Z,11.95
2023-08-29T06:40:55.350Z,12.03
2023-08-29T06:43:22.971Z,12.15
2023-08-29T06:45:50.591Z,12.20
2023-08-29T06:48:18.113Z,12.28
2023-08-29T06:50:48.552Z,12.31
2023-08-29T06:53:16.056Z,12.36
2023-08-29T06:55:43.529Z,12.50
2023-08-29T06:58:11.010Z,12.55
2023-08-29T07:00:38.553Z,12.63
2023-08-29T07:03:06.662Z,12.64
2023-08-29T07:05:34.925Z,12.80
2023-08-29T07:08:05.056Z,12.55
2023-08-29T07:10:32.927Z,12.76
2023-08-29T07:13:00.408Z,12.77
2023-08-29T07:15:27.919Z,12.97
2023-08-29T07:17:55.459Z,12.95
2023-08-29T07:20:23.191Z,13.10
2023-08-29T07:22:50.694Z,13.08
2023-08-29T07:25:20.858Z,13.13
2023-08-29T07:27:48.331Z,13.21
2023-08-29T07:30:16.828Z,13.28
2023-08-29T07:32:45.463Z,13.50
2023-08-29T07:35:14.886Z,13.53
2023-08-29T07:37:42.432Z,13.56
2023-08-29T07:40:11.063Z,13.63
2023-08-29T07:42:39.979Z,13.58
2023-08-29T07:45:08.534Z,13.70
2023-08-29T07:47:36.201Z,13.81
2023-08-29T07:50:04.256Z,13.84
2023-08-29T07:52:31.756Z,13.74
2023-08-29T07:54:59.795Z,13.81
2023-08-29T07:57:27.343Z,13.79
2023-08-29T07:59:56.150Z,13.93
2023-08-29T08:02:23.719Z,13.80
2023-08-29T08:04:51.201Z,13.92
2023-08-29T08:07:18.790Z,13.87
2023-08-29T08:09:46.505Z,13.97
2023-08-29T08:12:14.050Z,14.00
2023-08-29T08:14:41.567Z,14.31
2023-08-29T08:17:10.935Z,14.41
2023-08-29T08:19:38.425Z,14.38
2023-08-29T08:22:06.210Z,14.44
2023-08-29T08:24:33.707Z,14.47
2023-08-29T08:27:01.270Z,14.33
2023-08-29T08:29:28.790Z,14.49
2023-08-29T08:31:56.273Z,14.53
2023-08-29T08:34:25.191Z,14.52
2023-08-29T08:36:52.728Z,14.64
2023-08-29T08:39:20.235Z,14.46
2023-08-29T08:41:47.763Z,14.68
2023-08-29T08:44:17.002Z,14.50
2023-08-29T08:46:46.032Z,14.63
2023-08-29T08:49:14.664Z,15.05
2023-08-29T08:51:43.847Z,15.13
2023-08-29T08:54:12.603Z,15.18
2023-08-29T08:56:40.810Z,15.31
2023-08-29T08:59:08.519Z,15.20
2023-08-29T09:01:36.061Z,15.29
2023-08-29T09:04:04.243Z,15.58
2023-08-29T09:06:32.254Z,15.54
2023-08-29T09:09:16.830Z,15.55
2023-08-29T09:11:44.549Z,15.40
2023-08-29T09:14:13.975Z,15.39
2023-08-29T09:16:41.820Z,15.43
2023-08-29T09:19:09.407Z,15.05
2023-08-29T09:21:37.569Z,15.30
2023-08-29T09:24:05.771Z,15.21
2023-08-29T09:26:36.064Z,15.85
2023-08-29T09:29:18.952Z,16.01
2023-08-29T09:31:48.027Z,15.59
2023-08-29T09:34:30.092Z,16.04
2023-08-29T09:36:58.692Z,16.12
2023-08-29T09:39:26.569Z,15.88
2023-08-29T09:42:02.934Z,15.84
2023-08-29T09:44:31.110Z,15.53
2023-08-29T09:46:58.665Z,15.73
2023-08-29T09:49:32.551Z,15.97
2023-08-29T09:52:03.567Z,16.31
2023-08-29T09:54:34.631Z,16.16
2023-08-29T09:57:06.719Z,16.27
2023-08-29T09:59:38.226Z,16.25
2023-08-29T10:02:06.495Z,16.23
2023-08-29T10:04:36.365Z,16.20
2023-08-29T10:07:06.839Z,16.23
2023-08-29T10:09:35.696Z,16.71
2023-08-29T10:12:06.315Z,16.87
2023-08-29T10:14:35.591Z,16.57
2023-08-29T10:17:08.410Z,16.11
2023-08-29T10:19:39.217Z,15.99
2023-08-29T10:22:08.481Z,15.89
2023-08-29T10:24:37.325Z,15.88
2023-08-29T10:27:06.736Z,15.68
2023-08-29T10:29:34.581Z,15.93
2023-08-29T10:32:03.833Z,15.94
2023-08-29T10:34:31.884Z,16.06
2023-08-29T10:37:01.076Z,16.38
2023-08-29T10:39:28.968Z,16.35
2023-08-29T10:41:57.807Z,16.87
2023-08-29T10:44:37.673Z,17.50
2023-08-29T10:47:27.717Z,17.65
2023-08-29T10:50:00.004Z,17.63
2023-08-29T10:52:38.328Z,17.28
2023-08-29T10:55:09.921Z,17.29
2023-08-29T10:57:37.564Z,17.30
2023-08-29T11:00:18.362Z,17.16
2023-08-29T11:02:46.677Z,17.47
2023-08-29T11:05:16.820Z,16.97
2023-08-29T11:07:47.998Z,17.25
2023-08-29T11:10:21.211Z,17.52
2023-08-29T11:13:07.421Z,17.51
2023-08-29T11:16:07.784Z,17.84
2023-08-29T11:18:36.072Z,17.92
2023-08-29T11:21:08.374Z,17.69
2023-08-29T11:23:39.650Z,17.84
2023-08-29T11:26:07.770Z,18.08
2023-08-29T11:28:36.180Z,18.02
2023-08-29T11:31:06.009Z,17.82
2023-08-29T11:33:36.437Z,18.11
2023-08-29T11:36:07.107Z,18.37
2023-08-29T11:38:38.656Z,18.74
2023-08-29T11:41:19.495Z,18.12
2023-08-29T11:44:25.166Z,18.13
2023-08-29T11:46:45.433Z,17.40
2023-08-29T11:49:15.632Z,17.38
2023-08-29T11:51:43.400Z,17.50
2023-08-29T11:54:42.274Z,16.78
2023-08-29T11:57:13.299Z,17.43
2023-08-29T11:59:42.687Z,17.67
2023-08-29T12:02:16.959Z,17.68
2023-08-29T12:04:48.871Z,17.15
2023-08-29T12:07:17.877Z,16.81
2023-08-29T12:09:47.340Z,16.96
2023-08-29T12:12:32.609Z,17.13
2023-08-29T12:15:01.012Z,16.71
2023-08-29T12:17:39.291Z,16.99
2023-08-29T12:20:31.097Z,17.03
2023-08-29T12:22:59.161Z,17.56
2023-08-29T12:25:28.037Z,17.07
2023-08-29T12:27:55.797Z,17.16
2023-08-29T12:30:23.675Z,17.29
2023-08-29T12:32:51.422Z,17.25
2023-08-29T12:35:19.941Z,17.58
2023-08-29T12:37:49.704Z,17.11
2023-08-29T12:40:18.684Z,17.18
2023-08-29T12:42:48.493Z,17.52
2023-08-29T12:45:16.232Z,17.33
2023-08-29T12:47:43.971Z,17.48
2023-08-29T12:50:15.953Z,17.33
2023-08-29T12:52:43.815Z,17.58
2023-08-29T12:55:13.496Z,17.16
2023-08-29T12:57:41.340Z,17.19
2023-08-29T13:00:10.757Z,17.31
2023-08-29T13:02:38.569Z,17.31
2023-08-29T13:05:07.736Z,16.92
2023-08-29T13:07:35.398Z,17.26
2023-08-29T13:10:06.304Z,17.46
2023-08-29T13:12:37.334Z,17.13
2023-08-29T13:15:06.763Z,17.23
2023-08-29T13:17:34.985Z,16.81
2023-08-29T13:20:02.759Z,17.23
2023-08-29T13:22:30.565Z,17.11
2023-08-29T13:24:59.361Z,16.95
2023-08-29T13:27:26.920Z,17.29
2023-08-29T13:29:55.827Z,17.97
2023-08-29T13:32:23.355Z,17.55
2023-08-29T13:34:50.867Z,18.26
2023-08-29T13:37:18.420Z,18.07
2023-08-29T13:39:45.984Z,18.03
2023-08-29T13:42:13.543Z,18.35
2023-08-29T13:44:41.053Z,18.09
2023-08-29T13:47:10.363Z,18.00
2023-08-29T13:49:37.914Z,18.40
2023-08-29T13:52:08.397Z,18.25
2023-08-29T13:54:37.064Z,18.41
2023-08-29T13:57:05.257Z,18.62
2023-08-29T13:59:33.118Z,17.41
2023-08-29T14:02:00.822Z,17.51
2023-08-29T14:04:29.772Z,17.90
2023-08-29T14:06:57.731Z,17.52
2023-08-29T14:09:25.276Z,17.93
2023-08-29T14:11:52.746Z,18.10
2023-08-29T14:14:20.274Z,17.94
2023-08-29T14:16:47.776Z,18.20
2023-08-29T14:19:15.307Z,18.63
2023-08-29T14:21:44.165Z,19.19
2023-08-29T14:24:11.777Z,19.65
2023-08-29T14:26:40.607Z,19.57
2023-08-29T14:29:08.528Z,19.27
2023-08-29T14:31:36.113Z,18.77
2023-08-29T14:34:03.758Z,18.88
2023-08-29T14:36:32.213Z,18.84
2023-08-29T14:39:01.839Z,19.23
2023-08-29T14:41:29.511Z,19.11
2023-08-29T14:43:57.173Z,18.85
2023-08-29T14:46:24.813Z,18.09
2023-08-29T14:48:52.461Z,18.68
2023-08-29T14:51:19.963Z,18.58
2023-08-29T14:53:47.501Z,17.83
2023-08-29T14:56:16.437Z,18.43
2023-08-29T14:58:45.270Z,18.32
2023-08-29T15:01:12.805Z,17.76
2023-08-29T15:03:40.707Z,18.20
2023-08-29T15:06:09.252Z,18.73
2023-08-29T15:08:36.740Z,18.70
2023-08-29T15:11:04.218Z,18.16
2023-08-29T15:13:33.033Z,18.56
2023-08-29T15:16:01.375Z,18.53
2023-08-29T15:18:28.997Z,17.87
2023-08-29T15:20:56.520Z,18.13
2023-08-29T15:23:25.384Z,18.37
2023-08-29T15:25:53.385Z,18.21
2023-08-29T15:28:21.139Z,17.86
2023-08-29T15:30:53.460Z,17.79
2023-08-29T15:33:22.064Z,17.59
2023-08-29T15:35:49.544Z,18.38
2023-08-29T15:38:17.067Z,18.63
2023-08-29T15:40:46.034Z,18.51
2023-08-29T15:43:15.425Z,19.21
2023-08-29T15:45:46.360Z,19.00
2023-08-29T15:48:15.654Z,18.68
2023-08-29T15:50:44.545Z,17.55
2023-08-29T15:53:12.383Z,17.31
2023-08-29T15:55:40.521Z,17.35
2023-08-29T15:58:09.657Z,17.60
2023-08-29T16:00:38.066Z,16.87
2023-08-29T16:03:07.627Z,16.98
2023-08-29T16:05:37.212Z,17.51
2023-08-29T16:08:05.887Z,17.88
2023-08-29T16:10:33.697Z,17.85
2023-08-29T16:13:01.663Z,18.05
2023-08-29T16:15:29.173Z,17.78
2023-08-29T16:17:56.794Z,17.92
2023-08-29T16:20:25.809Z,18.00
2023-08-29T16:22:56.339Z,17.67
2023-08-29T16:25:23.830Z,17.82
2023-08-29T16:27:51.308Z,17.76
2023-08-29T16:30:18.848Z,17.45
2023-08-29T16:32:46.559Z,16.86
2023-08-29T16:35:14.251Z,17.10
2023-08-29T16:37:41.728Z,16.86
2023-08-29T16:40:11.883Z,16.85
2023-08-29T16:42:39.398Z,16.54
2023-08-29T16:45:10.212Z,16.43
2023-08-29T16:47:37.947Z,16.47
2023-08-29T16:50:06.501Z,16.39
2023-08-29T16:52:33.993Z,16.56
2023-08-29T16:55:02.607Z,16.66
2023-08-29T16:57:31.409Z,16.69
2023-08-29T17:00:00.001Z,16.81
2023-08-29T17:02:28.629Z,16.59
2023-08-29T17:04:57.654Z,16.28
2023-08-29T17:07:26.414Z,16.41
2023-08-29T17:09:54.233Z,16.53
2023-08-29T17:12:23.232Z,16.28
2023-08-29T17:14:52.621Z,16.33
2023-08-29T17:17:20.478Z,16.67
2023-08-29T17:19:48.050Z,16.20
2023-08-29T17:22:15.610Z,16.28
2023-08-29T17:24:43.317Z,16.25
2023-08-29T17:27:10.803Z,16.32
2023-08-29T17:29:38.367Z,16.22
2023-08-29T17:32:08.420Z,16.33
2023-08-29T17:34:35.916Z,16.23
2023-08-29T17:37:03.525Z,16.23
2023-08-29T17:39:31.024Z,16.18
2023-08-29T17:41:58.658Z,15.75
2023-08-29T17:44:26.144Z,15.66
2023-08-29T17:46:53.643Z,15.77
2023-08-29T17:49:22.523Z,15.77
2023-08-29T17:51:50.064Z,15.81
2023-08-29T17:54:18.708Z,15.65
2023-08-29T17:56:46.388Z,15.51
2023-08-29T17:59:13.935Z,15.47
2023-08-29T18:01:41.599Z,15.40
2023-08-29T18:04:09.949Z,15.24
2023-08-29T18:06:38.835Z,15.18
2023-08-29T18:09:06.670Z,15.14
2023-08-29T18:11:34.291Z,15.12
2023-08-29T18:14:01.833Z,15.04
2023-08-29T18:16:29.572Z,14.96
2023-08-29T18:19:00.558Z,14.93
2023-08-29T18:21:28.521Z,14.72
2023-08-29T18:23:58.448Z,14.68
2023-08-29T18:26:26.185Z,14.62
2023-08-29T18:28:53.823Z,14.61
2023-08-29T18:31:21.431Z,14.57
2023-08-29T18:33:49.039Z,14.37
2023-08-29T18:36:16.554Z,14.31
2023-08-29T18:38:44.068Z,14.09
2023-08-29T18:41:12.891Z,13.93
2023-08-29T18:43:40.847Z,13.84
2023-08-29T18:46:08.970Z,13.67
2023-08-29T18:48:36.580Z,13.53
2023-08-29T18:51:04.121Z,13.47
2023-08-29T18:53:31.673Z,13.16
2023-08-29T18:55:59.475Z,13.09
2023-08-29T18:58:28.299Z,13.01
2023-08-29T19:00:55.814Z,12.88
2023-08-29T19:03:23.476Z,12.81
2023-08-29T19:05:51.014Z,12.78
2023-08-29T19:08:18.500Z,12.80
2023-08-29T19:10:47.523Z,12.70
2023-08-29T19:13:15.080Z,12.69
2023-08-29T19:15:43.936Z,12.55
2023-08-29T19:18:14.523Z,12.50
2023-08-29T19:20:42.301Z,12.54
2023-08-29T19:23:09.910Z,12.53
2023-08-29T19:25:37.411Z,12.46
2023-08-29T19:28:05.867Z,12.41
2023-08-29T19:30:35.186Z,12.36
2023-08-29T19:33:05.410Z,12.17
2023-08-29T19:35:36.198Z,12.00
2023-08-29T19:38:04.121Z,12.01
2023-08-29T19:40:31.830Z,11.98
2023-08-29T19:43:01.366Z,11.95
2023-08-29T19:45:29.623Z,11.95
2023-08-29T19:47:57.410Z,11.92
2023-08-29T19:50:26.425Z,11.67
2023-08-29T19:52:54.093Z,11.59
2023-08-29T19:55:22.773Z,11.36
2023-08-29T19:57:50.578Z,11.31
2023-08-29T20:00:18.981Z,11.24
2023-08-29T20:02:55.558Z,11.22
2023-08-29T20:05:24.428Z,11.11
2023-08-29T20:07:53.894Z,11.09
2023-08-29T20:10:22.742Z,11.03
2023-08-29T20:12:50.471Z,10.96
2023-08-29T20:15:19.166Z,10.97
2023-08-29T20:17:47.322Z,10.97
2023-08-29T20:20:15.282Z,10.96
2023-08-29T20:22:44.369Z,10.97
2023-08-29T20:25:13.324Z,10.89
2023-08-29T20:27:40.999Z,10.98
2023-08-29T20:30:10.407Z,10.93
2023-08-29T20:32:38.875Z,10.91
2023-08-29T20:35:07.976Z,10.80
2023-08-29T20:37:35.627Z,10.88
2023-08-29T20:40:04.960Z,10.89
2023-08-29T20:42:34.718Z,10.81
2023-08-29T20:45:02.479Z,10.79
2023-08-29T20:47:30.199Z,10.74
2023-08-29T20:49:57.915Z,10.68
2023-08-29T20:52:26.669Z,10.74
2023-08-29T20:54:54.400Z,10.67
2023-08-29T20:57:22.068Z,10.62
2023-08-29T20:59:51.151Z,10.56
2023-08-29T21:02:18.821Z,10.51
2023-08-29T21:04:46.691Z,10.57
2023-08-29T21:07:14.445Z,10.62
2023-08-29T21:09:42.604Z,10.50
2023-08-29T21:12:10.468Z,10.40
2023-08-29T21:14:38.205Z,10.47
2023-08-29T21:17:07.222Z,10.42
2023-08-29T21:19:35.376Z,10.39
2023-08-29T21:22:02.884Z,10.41
2023-08-29T21:24:30.490Z,10.34
2023-08-29T21:26:57.989Z,10.29
2023-08-29T21:29:25.534Z,10.40
2023-08-29T21:31:53.060Z,10.37
2023-08-29T21:34:23.277Z,10.35
2023-08-29T21:36:51.659Z,10.38
2023-08-29T21:39:19.195Z,10.40
2023-08-29T21:41:46.891Z,10.30
2023-08-29T21:44:14.460Z,10.22
2023-08-29T21:46:41.973Z,10.24
2023-08-29T21:49:09.471Z,10.15
2023-08-29T21:51:38.336Z,10.18
2023-08-29T21:54:06.158Z,10.23
2023-08-29T21:56:33.649Z,10.15
2023-08-29T21:59:01.144Z,10.26
2023-08-29T22:01:28.654Z,10.19
2023-08-29T22:03:56.705Z,10.08
2023-08-29T22:06:24.238Z,10.04
2023-08-29T22:08:53.065Z,10.11
2023-08-29T22:11:22.398Z,10.03
2023-08-29T22:13:49.924Z,10.06
2023-08-29T22:16:17.523Z,10.14
2023-08-29T22:18:45.093Z,10.13
2023-08-29T22:21:12.632Z,10.15
2023-08-29T22:23:40.140Z,10.11
2023-08-29T22:26:09.005Z,10.17
2023-08-29T22:28:36.559Z,10.15
2023-08-29T22:31:04.102Z,10.16
2023-08-29T22:33:32.781Z,10.13
2023-08-29T22:36:00.491Z,10.15
2023-08-29T22:38:28.092Z,10.26
2023-08-29T22:40:55.959Z,10.38
2023-08-29T22:43:24.790Z,10.35
2023-08-29T22:45:55.919Z,10.33
2023-08-29T22:48:23.537Z,10.27
2023-08-29T22:50:51.243Z,10.30
2023-08-29T22:53:18.940Z,10.16
2023-08-29T22:55:46.444Z,10.14
2023-08-29T22:58:13.956Z,10.12
2023-08-29T23:00:43.188Z,10.14
2023-08-29T23:03:11.004Z,10.15
2023-08-29T23:05:43.956Z,10.19
2023-08-29T23:08:12.390Z,10.24
2023-08-29T23:10:40.289Z,10.25
2023-08-29T23:13:07.780Z,10.13
2023-08-29T23:15:35.992Z,10.20
2023-08-29T23:18:05.489Z,10.22
2023-08-29T23:20:33.750Z,10.29
2023-08-29T23:23:01.273Z,10.29
2023-08-29T23:25:28.760Z,10.39
2023-08-29T23:27:56.298Z,10.39
2023-08-29T23:30:23.857Z,10.42
2023-08-29T23:32:51.397Z,10.40
2023-08-29T23:35:21.453Z,10.42
2023-08-29T23:37:48.957Z,10.47
2023-08-29T23:40:16.558Z,10.43
2023-08-29T23:42:44.073Z,10.39
2023-08-29T23:45:11.823Z,10.40
2023-08-29T23:47:39.334Z,10.48
2023-08-29T23:50:07.816Z,10.58
2023-08-29T23:52:36.700Z,10.59
2023-08-29T23:55:05.136Z,10.50
2023-08-29T23:57:32.630Z,10.52
